createdAt,value
2018-02-21T00:00:20.204Z,49.26
2018-02-21T00:02:48.695Z,50.43
2018-02-21T00:07:51.770Z,50.88
2018-02-21T00:10:20.157Z,50.83
2018-02-21T00:12:48.560Z,51.93
2018-02-21T00:15:16.947Z,51.72
2018-02-21T00:17:45.327Z,52.27
2018-02-21T00:20:13.721Z,50.58
2018-02-21T00:22:42.125Z,51.36
2018-02-21T00:25:10.507Z,53.24
2018-02-21T00:27:38.870Z,52.12
2018-02-21T00:30:07.351Z,51.32
2018-02-21T00:32:35.732Z,52.18
2018-02-21T00:35:04.193Z,51.80
2018-02-21T00:37:32.560Z,50.20
2018-02-21T00:40:00.983Z,48.38
2018-02-21T00:42:29.417Z,49.58
2018-02-21T00:44:57.796Z,50.80
2018-02-21T00:47:26.275Z,51.86
2018-02-21T00:49:54.658Z,52.59
2018-02-21T00:52:23.047Z,52.02
2018-02-21T00:54:51.426Z,50.61
2018-02-21T00:57:19.839Z,51.58
2018-02-21T00:59:48.215Z,50.91
2018-02-21T01:02:16.695Z,49.24
2018-02-21T01:04:45.136Z,53.14
2018-02-21T01:07:13.510Z,49.89
2018-02-21T01:09:41.889Z,48.89
2018-02-21T01:12:10.259Z,48.14
2018-02-21T01:14:38.786Z,48.69
2018-02-21T01:17:07.159Z,48.16
2018-02-21T01:19:35.557Z,48.44
2018-02-21T01:22:03.978Z,48.04
2018-02-21T01:24:32.350Z,47.82
2018-02-21T01:27:00.794Z,48.52
2018-02-21T01:29:29.181Z,49.66
2018-02-21T01:31:57.581Z,49.87
2018-02-21T01:34:25.950Z,49.64
2018-02-21T01:36:54.342Z,48.69
2018-02-21T01:39:22.802Z,49.12
2018-02-21T01:41:51.174Z,49.04
2018-02-21T01:44:19.579Z,48.70
2018-02-21T01:46:47.950Z,51.36
2018-02-21T01:49:16.331Z,49.92
2018-02-21T01:51:44.712Z,49.20
2018-02-21T01:54:13.081Z,49.48
2018-02-21T01:56:41.514Z,49.71
2018-02-21T01:59:09.880Z,49.03
2018-02-21T02:01:38.268Z,49.07
2018-02-21T02:04:06.656Z,48.75
2018-02-21T02:06:35.147Z,52.71
2018-02-21T02:09:03.582Z,53.47
2018-02-21T02:11:31.964Z,51.88
2018-02-21T02:14:00.336Z,49.90
2018-02-21T02:16:28.709Z,51.63
2018-02-21T02:18:57.082Z,51.71
2018-02-21T02:21:25.494Z,51.66
2018-02-21T02:23:53.865Z,52.33
2018-02-21T02:26:22.242Z,52.62
2018-02-21T02:28:50.655Z,51.51
2018-02-21T02:31:19.052Z,53.19
2018-02-21T02:33:47.668Z,51.33
2018-02-21T02:36:16.103Z,49.38
2018-02-21T02:38:56.064Z,49.06
2018-02-21T02:41:24.498Z,49.41
2018-02-21T02:43:52.878Z,51.54
2018-02-21T02:46:21.244Z,51.25
2018-02-21T02:48:49.611Z,51.73
2018-02-21T02:51:18.000Z,53.11
2018-02-21T02:53:46.381Z,52.53
2018-02-21T02:56:14.883Z,55.75
2018-02-21T02:58:43.260Z,55.06
2018-02-21T03:01:11.654Z,51.59
2018-02-21T03:03:40.104Z,50.54
2018-02-21T03:06:08.481Z,51.04
2018-02-21T03:08:36.859Z,56.55
2018-02-21T03:11:05.226Z,53.35
2018-02-21T03:13:33.631Z,56.61
2018-02-21T03:16:02.584Z,55.65
2018-02-21T03:18:30.983Z,53.84
2018-02-21T03:20:59.367Z,53.85
2018-02-21T03:23:27.739Z,50.97
2018-02-21T03:25:56.120Z,50.70
2018-02-21T03:28:24.507Z,50.16
2018-02-21T03:30:52.877Z,54.78
2018-02-21T03:33:21.252Z,53.46
2018-02-21T03:35:49.748Z,51.60
2018-02-21T03:38:18.132Z,51.35
2018-02-21T03:40:46.505Z,50.38
2018-02-21T03:43:14.878Z,50.76
2018-02-21T03:45:43.303Z,50.00
2018-02-21T03:48:11.683Z,50.95
2018-02-21T03:50:40.065Z,50.84
2018-02-21T03:53:08.458Z,51.40
2018-02-21T03:55:36.912Z,51.41
2018-02-21T03:58:05.296Z,53.09
2018-02-21T04:00:33.774Z,52.63
2018-02-21T04:03:02.174Z,53.12
2018-02-21T04:05:30.654Z,54.15
2018-02-21T04:07:59.078Z,51.81
2018-02-21T04:10:27.489Z,50.44
2018-02-21T04:12:56.048Z,51.17
2018-02-21T04:15:24.465Z,52.30
2018-02-21T04:17:52.875Z,52.47
2018-02-21T04:20:21.324Z,52.55
2018-02-21T04:22:49.720Z,52.08
2018-02-21T04:25:18.201Z,50.36
2018-02-21T04:27:46.625Z,50.46
2018-02-21T04:30:15.030Z,50.22
2018-02-21T04:32:43.592Z,50.40
2018-02-21T04:35:12.013Z,50.38
2018-02-21T04:37:40.482Z,51.44
2018-02-21T04:40:08.859Z,50.54
2018-02-21T04:42:37.289Z,50.46
2018-02-21T04:45:06.101Z,51.61
2018-02-21T04:47:34.488Z,53.50
2018-02-21T04:50:02.882Z,53.08
2018-02-21T04:52:31.427Z,53.01
2018-02-21T05:00:50.037Z,51.34
2018-02-21T05:03:18.528Z,50.90
2018-02-21T05:05:46.926Z,51.07
2018-02-21T05:08:15.378Z,51.28
2018-02-21T05:10:43.758Z,51.47
2018-02-21T05:13:12.158Z,51.15
2018-02-21T05:15:40.542Z,51.62
2018-02-21T05:18:08.921Z,52.00
2018-02-21T05:20:37.299Z,51.50
2018-02-21T05:23:06.087Z,51.82
2018-02-21T05:25:34.514Z,51.51
2018-02-21T05:28:02.888Z,51.87
2018-02-21T05:30:31.382Z,52.02
2018-02-21T05:32:59.799Z,53.43
2018-02-21T05:35:28.221Z,53.28
2018-02-21T05:37:56.674Z,54.80
2018-02-21T05:40:25.106Z,55.15
2018-02-21T05:42:53.506Z,54.41
2018-02-21T05:45:22.095Z,53.96
2018-02-21T05:47:50.514Z,54.37
2018-02-21T05:50:19.047Z,53.73
2018-02-21T05:52:47.586Z,54.50
2018-02-21T05:55:16.016Z,53.58
2018-02-21T05:57:44.435Z,52.95
2018-02-21T06:00:12.913Z,52.50
2018-02-21T06:02:41.406Z,52.25
2018-02-21T06:05:09.903Z,54.01
2018-02-21T06:07:38.242Z,54.32
2018-02-21T06:10:06.643Z,55.01
2018-02-21T06:12:35.117Z,54.31
2018-02-21T06:15:03.520Z,53.93
2018-02-21T06:17:32.132Z,53.02
2018-02-21T06:20:00.545Z,53.88
2018-02-21T06:22:28.957Z,54.32
2018-02-21T06:24:57.508Z,53.14
2018-02-21T06:27:25.876Z,53.51
2018-02-21T06:29:54.316Z,53.53
2018-02-21T06:32:22.725Z,53.53
2018-02-21T06:34:51.136Z,53.40
2018-02-21T06:37:19.597Z,52.92
2018-02-21T06:39:48.001Z,53.53
2018-02-21T06:42:16.401Z,54.02
2018-02-21T06:44:44.921Z,54.43
2018-02-21T06:47:13.351Z,53.28
2018-02-21T06:49:42.141Z,53.60
2018-02-21T06:52:10.722Z,54.36
2018-02-21T06:54:39.196Z,54.57
2018-02-21T06:57:07.616Z,53.87
2018-02-21T06:59:36.042Z,54.26
2018-02-21T07:02:04.520Z,54.42
2018-02-21T07:04:32.925Z,52.01
2018-02-21T07:07:01.312Z,52.62
2018-02-21T07:09:29.728Z,52.54
2018-02-21T07:11:58.119Z,53.65
2018-02-21T07:14:26.930Z,53.17
2018-02-21T07:16:55.360Z,52.22
2018-02-21T07:19:23.913Z,53.27
2018-02-21T07:21:52.346Z,52.18
2018-02-21T07:24:20.755Z,52.26
2018-02-21T07:26:49.291Z,52.84
2018-02-21T07:29:17.703Z,55.75
2018-02-21T07:31:46.148Z,52.07
2018-02-21T07:34:14.643Z,53.06
2018-02-21T07:36:43.116Z,55.32
2018-02-21T07:39:11.582Z,55.42
2018-02-21T07:41:39.996Z,54.68
2018-02-21T07:44:08.415Z,53.75
2018-02-21T07:46:36.812Z,53.26
2018-02-21T07:49:05.263Z,52.08
2018-02-21T07:51:33.993Z,51.60
2018-02-21T07:54:02.524Z,50.81
2018-02-21T07:56:30.947Z,52.17
2018-02-21T07:58:59.867Z,51.74
2018-02-21T08:01:28.271Z,52.26
2018-02-21T08:03:56.967Z,51.85
2018-02-21T08:06:25.518Z,52.94
2018-02-21T08:08:53.950Z,51.33
2018-02-21T08:11:22.431Z,50.38
2018-02-21T08:13:50.825Z,50.98
2018-02-21T08:16:19.352Z,49.67
2018-02-21T08:18:47.769Z,48.65
2018-02-21T08:21:16.169Z,49.06
2018-02-21T08:23:44.663Z,51.57
2018-02-21T08:26:13.295Z,49.68
2018-02-21T08:28:41.707Z,49.79
2018-02-21T08:31:10.106Z,49.23
2018-02-21T08:33:38.518Z,48.75
2018-02-21T08:36:06.929Z,46.69
2018-02-21T08:38:35.427Z,46.29
2018-02-21T08:41:03.836Z,46.84
2018-02-21T08:43:32.243Z,45.64
2018-02-21T08:46:00.694Z,45.42
2018-02-21T08:48:29.109Z,46.86
2018-02-21T08:50:57.689Z,45.16
2018-02-21T08:53:26.088Z,44.52
2018-02-21T08:55:54.486Z,44.79
2018-02-21T08:58:22.893Z,44.29
2018-02-21T09:00:51.299Z,39.95
2018-02-21T09:03:19.776Z,35.79
2018-02-21T09:05:48.193Z,34.84
2018-02-21T09:08:16.602Z,35.91
2018-02-21T09:10:45.028Z,33.18
2018-02-21T09:13:13.453Z,33.75
2018-02-21T09:18:16.375Z,32.38
2018-02-21T09:20:45.069Z,33.86
2018-02-21T09:23:13.488Z,33.88
2018-02-21T09:25:41.907Z,32.41
2018-02-21T09:28:10.838Z,32.20
2018-02-21T09:30:39.252Z,34.35
2018-02-21T09:33:07.757Z,32.22
2018-02-21T09:35:36.184Z,31.54
2018-02-21T09:38:04.621Z,32.95
2018-02-21T09:40:33.046Z,31.61
2018-02-21T09:43:01.473Z,31.78
2018-02-21T09:45:30.026Z,30.17
2018-02-21T09:47:58.439Z,29.23
2018-02-21T09:50:26.856Z,31.41
2018-02-21T09:52:55.254Z,32.16
2018-02-21T09:55:23.684Z,30.89
2018-02-21T09:57:52.147Z,30.93
2018-02-21T10:00:20.561Z,32.36
2018-02-21T10:02:48.950Z,31.31
2018-02-21T10:05:17.367Z,31.37
2018-02-21T10:07:45.766Z,29.48
2018-02-21T10:10:14.430Z,28.19
2018-02-21T10:12:42.835Z,27.20
2018-02-21T10:15:11.369Z,27.72
2018-02-21T10:17:39.843Z,28.14
2018-02-21T10:20:08.265Z,27.47
2018-02-21T10:22:36.726Z,27.45
2018-02-21T10:25:05.144Z,30.73
2018-02-21T10:27:33.555Z,29.09
2018-02-21T10:30:01.992Z,27.67
2018-02-21T10:32:30.451Z,28.78
2018-02-21T10:34:59.010Z,28.37
2018-02-21T10:37:27.419Z,28.00
2018-02-21T10:39:55.852Z,28.53
2018-02-21T10:42:24.259Z,29.92
2018-02-21T10:44:52.663Z,28.80
2018-02-21T10:47:21.116Z,29.22
2018-02-21T10:49:49.532Z,27.97
2018-02-21T10:52:17.964Z,29.22
2018-02-21T10:54:46.380Z,30.94
2018-02-21T10:57:14.853Z,32.72
2018-02-21T10:59:43.327Z,34.18
2018-02-21T11:02:11.731Z,35.52
2018-02-21T11:04:40.173Z,35.71
2018-02-21T11:07:08.647Z,35.78
2018-02-21T11:09:37.053Z,34.65
2018-02-21T11:12:05.534Z,34.35
2018-02-21T11:14:33.939Z,35.38
2018-02-21T11:17:02.350Z,33.56
2018-02-21T11:19:30.754Z,35.40
2018-02-21T11:21:59.205Z,36.70
2018-02-21T11:24:27.722Z,36.40
2018-02-21T11:26:56.249Z,37.33
2018-02-21T11:29:24.728Z,37.62
2018-02-21T11:31:53.129Z,38.55
2018-02-21T11:34:21.536Z,38.21
2018-02-21T11:36:50.046Z,36.95
2018-02-21T11:39:18.474Z,37.41
2018-02-21T11:41:46.954Z,37.54
2018-02-21T11:44:15.363Z,36.94
2018-02-21T11:46:43.777Z,36.57
2018-02-21T11:49:12.195Z,37.65
2018-02-21T11:51:40.622Z,35.84
2018-02-21T11:54:09.072Z,36.12
2018-02-21T11:56:37.466Z,36.39
2018-02-21T11:59:05.884Z,35.61
2018-02-21T12:01:34.438Z,33.59
2018-02-21T12:04:02.853Z,31.54
2018-02-21T12:06:31.325Z,30.40
2018-02-21T12:08:59.743Z,28.99
2018-02-21T12:11:28.198Z,28.73
2018-02-21T12:13:56.634Z,27.94
2018-02-21T12:16:25.052Z,29.72
2018-02-21T12:18:53.535Z,28.29
2018-02-21T12:21:22.011Z,28.00
2018-02-21T12:23:50.418Z,27.14
2018-02-21T12:26:18.826Z,28.15
2018-02-21T12:28:47.234Z,26.30
2018-02-21T12:31:15.699Z,27.55
2018-02-21T12:33:44.108Z,27.04
2018-02-21T12:36:12.527Z,28.23
2018-02-21T12:38:41.172Z,26.77
2018-02-21T12:41:16.121Z,27.72
2018-02-21T12:43:44.517Z,27.20
2018-02-21T12:46:12.934Z,27.44
2018-02-21T12:48:41.419Z,27.36
2018-02-21T12:51:09.867Z,27.00
2018-02-21T12:53:38.292Z,25.77
2018-02-21T12:56:06.738Z,26.07
2018-02-21T12:58:35.156Z,26.18
2018-02-21T13:01:03.720Z,26.44
2018-02-21T13:03:32.183Z,26.26
2018-02-21T13:06:00.595Z,25.80
2018-02-21T13:08:29.297Z,27.96
2018-02-21T13:10:57.839Z,26.65
2018-02-21T13:13:26.442Z,25.45
2018-02-21T13:15:55.149Z,25.16
2018-02-21T13:18:23.732Z,26.11
2018-02-21T13:20:52.077Z,27.00
2018-02-21T13:23:20.582Z,28.90
2018-02-21T13:25:49.189Z,31.03
2018-02-21T13:28:17.577Z,30.86
2018-02-21T13:30:46.000Z,33.71
2018-02-21T13:33:14.419Z,34.58
2018-02-21T13:35:42.827Z,34.22
2018-02-21T13:38:14.450Z,33.74
2018-02-21T13:40:42.870Z,35.14
2018-02-21T13:43:11.305Z,35.67
2018-02-21T13:45:39.695Z,35.54
2018-02-21T13:48:08.172Z,34.89
2018-02-21T13:50:36.650Z,34.76
2018-02-21T13:53:05.067Z,36.47
2018-02-21T13:55:33.490Z,37.05
2018-02-21T13:58:01.906Z,36.16
2018-02-21T14:00:30.453Z,35.97
2018-02-21T14:02:59.237Z,36.14
2018-02-21T14:05:27.643Z,38.34
2018-02-21T14:07:56.067Z,38.79
2018-02-21T14:10:24.509Z,39.52
2018-02-21T14:12:52.923Z,38.88
2018-02-21T14:15:21.375Z,39.86
2018-02-21T14:17:49.782Z,39.97
2018-02-21T14:20:18.185Z,39.50
2018-02-21T14:22:46.623Z,40.32
2018-02-21T14:25:15.022Z,39.91
2018-02-21T14:27:43.508Z,40.25
2018-02-21T14:30:11.942Z,41.10
2018-02-21T14:32:40.437Z,40.26
2018-02-21T14:35:08.850Z,39.43
2018-02-21T14:37:37.360Z,39.12
2018-02-21T14:40:05.928Z,40.17
2018-02-21T14:42:34.359Z,40.77
2018-02-21T14:45:02.979Z,41.65
2018-02-21T14:47:31.412Z,39.82
2018-02-21T14:49:59.816Z,41.34
2018-02-21T14:52:28.321Z,39.85
2018-02-21T14:54:56.745Z,40.78
2018-02-21T14:57:25.172Z,40.88
2018-02-21T14:59:53.600Z,41.42
2018-02-21T15:02:22.005Z,39.60
2018-02-21T15:04:50.502Z,40.63
2018-02-21T15:07:18.935Z,40.03
2018-02-21T15:09:47.364Z,38.93
2018-02-21T15:12:15.786Z,38.42
2018-02-21T15:14:44.220Z,38.81
2018-02-21T15:17:12.964Z,38.56
2018-02-21T15:19:41.372Z,39.59
2018-02-21T15:25:10.060Z,38.72
2018-02-21T15:27:38.467Z,40.10
2018-02-21T15:30:06.966Z,39.34
2018-02-21T15:32:35.421Z,41.59
2018-02-21T15:35:03.889Z,40.51
2018-02-21T15:37:32.342Z,40.27
2018-02-21T15:40:00.848Z,40.08
2018-02-21T15:42:29.250Z,40.14
2018-02-21T15:44:57.719Z,41.99
2018-02-21T15:47:26.231Z,38.97
2018-02-21T15:49:54.735Z,39.87
2018-02-21T15:52:23.159Z,39.41
2018-02-21T15:55:06.870Z,39.93
2018-02-21T15:57:35.254Z,40.32
2018-02-21T16:00:03.665Z,40.89
2018-02-21T16:02:32.081Z,41.05
2018-02-21T16:05:00.540Z,41.02
2018-02-21T16:07:29.094Z,40.07
2018-02-21T16:09:57.505Z,39.72
2018-02-21T16:12:25.950Z,40.20
2018-02-21T16:14:54.361Z,40.46
2018-02-21T16:17:22.790Z,41.87
2018-02-21T16:19:51.266Z,41.48
2018-02-21T16:22:19.725Z,42.15
2018-02-21T16:24:48.168Z,42.72
2018-02-21T16:27:16.593Z,43.66
2018-02-21T16:29:45.007Z,42.50
2018-02-21T16:32:13.508Z,43.60
2018-02-21T16:34:41.910Z,44.53
2018-02-21T16:37:10.358Z,44.62
2018-02-21T16:39:38.820Z,45.01
2018-02-21T16:42:07.255Z,43.62
2018-02-21T16:44:36.015Z,43.81
2018-02-21T16:47:04.435Z,44.88
2018-02-21T16:49:32.849Z,44.43
2018-02-21T16:52:01.271Z,45.40
2018-02-21T16:54:29.680Z,44.48
2018-02-21T16:56:58.159Z,46.23
2018-02-21T16:59:26.586Z,46.85
2018-02-21T17:01:55.496Z,45.77
2018-02-21T17:04:23.911Z,47.56
2018-02-21T17:06:52.318Z,45.71
2018-02-21T17:09:20.740Z,47.21
2018-02-21T17:11:50.006Z,47.03
2018-02-21T17:14:18.577Z,46.35
2018-02-21T17:16:46.978Z,48.15
2018-02-21T17:19:15.396Z,47.77
2018-02-21T17:21:43.849Z,45.90
2018-02-21T17:24:12.242Z,46.30
2018-02-21T17:26:40.671Z,50.85
2018-02-21T17:29:10.991Z,50.39
2018-02-21T17:31:39.479Z,48.68
2018-02-21T17:34:07.889Z,48.69
2018-02-21T17:36:36.300Z,48.68
2018-02-21T17:39:04.845Z,50.35
2018-02-21T17:41:33.316Z,50.42
2018-02-21T17:44:01.768Z,49.60
2018-02-21T17:46:30.147Z,49.74
2018-02-21T17:48:58.618Z,52.40
2018-02-21T17:51:27.051Z,53.21
2018-02-21T17:53:55.515Z,51.37
2018-02-21T17:56:23.978Z,51.72
2018-02-21T17:58:52.383Z,52.34
2018-02-21T18:01:20.788Z,52.91
2018-02-21T18:03:49.198Z,53.12
2018-02-21T18:06:17.688Z,53.21
2018-02-21T18:08:46.118Z,53.12
2018-02-21T18:11:14.538Z,52.01
2018-02-21T18:13:42.970Z,54.06
2018-02-21T18:16:12.289Z,53.32
2018-02-21T18:18:40.801Z,53.38
2018-02-21T18:21:09.217Z,53.16
2018-02-21T18:23:37.835Z,52.81
2018-02-21T18:26:08.040Z,51.86
2018-02-21T18:28:36.565Z,51.09
2018-02-21T18:31:05.321Z,52.90
2018-02-21T18:33:34.224Z,53.39
2018-02-21T18:36:02.688Z,52.84
2018-02-21T18:38:32.328Z,50.17
2018-02-21T18:41:04.858Z,50.23
2018-02-21T18:43:33.303Z,51.36
2018-02-21T18:46:01.726Z,50.11
2018-02-21T18:48:30.123Z,50.56
2018-02-21T18:50:58.537Z,51.47
2018-02-21T18:53:26.952Z,51.22
2018-02-21T18:55:55.418Z,49.52
2018-02-21T18:58:23.830Z,52.18
2018-02-21T19:00:52.247Z,53.60
2018-02-21T19:03:20.682Z,50.83
2018-02-21T19:05:49.137Z,49.30
2018-02-21T19:10:51.730Z,51.20
2018-02-21T19:13:20.170Z,51.75
2018-02-21T19:15:48.647Z,53.25
2018-02-21T19:18:17.061Z,51.28
2018-02-21T19:20:45.480Z,54.26
2018-02-21T19:23:14.801Z,51.78
2018-02-21T19:25:43.297Z,51.71
2018-02-21T19:28:11.874Z,54.15
2018-02-21T19:30:40.454Z,54.97
2018-02-21T19:33:08.873Z,55.62
2018-02-21T19:35:37.283Z,56.00
2018-02-21T19:38:05.714Z,53.25
2018-02-21T19:40:34.213Z,53.06
2018-02-21T19:43:02.603Z,54.41
2018-02-21T19:45:31.021Z,53.42
2018-02-21T19:47:59.440Z,53.32
2018-02-21T19:50:27.986Z,52.81
2018-02-21T19:52:56.548Z,55.77
2018-02-21T19:55:25.945Z,55.53
2018-02-21T19:57:55.267Z,54.87
2018-02-21T20:00:23.656Z,53.60
2018-02-21T20:02:52.069Z,54.36
2018-02-21T20:05:20.579Z,52.67
2018-02-21T20:07:49.203Z,52.55
2018-02-21T20:10:17.644Z,56.12
2018-02-21T20:12:46.960Z,54.17
2018-02-21T20:15:15.370Z,51.88
2018-02-21T20:17:44.166Z,52.35
2018-02-21T20:20:12.640Z,52.05
2018-02-21T20:22:41.191Z,51.65
2018-02-21T20:25:09.618Z,51.69
2018-02-21T20:27:38.042Z,51.02
2018-02-21T20:30:06.623Z,51.98
2018-02-21T20:32:35.071Z,52.33
2018-02-21T20:35:03.489Z,52.83
2018-02-21T20:37:31.974Z,53.71
2018-02-21T20:40:00.416Z,52.52
2018-02-21T20:42:28.894Z,51.93
2018-02-21T20:44:57.520Z,52.41
2018-02-21T20:47:26.022Z,52.34
2018-02-21T20:49:54.456Z,51.20
2018-02-21T20:52:23.214Z,49.76
2018-02-21T20:54:52.084Z,53.80
2018-02-21T20:57:20.946Z,51.48
2018-02-21T20:59:49.482Z,53.39
2018-02-21T21:02:17.897Z,51.27
2018-02-21T21:04:46.313Z,51.04
2018-02-21T21:07:14.798Z,51.41
2018-02-21T21:09:43.430Z,50.84
2018-02-21T21:12:12.188Z,51.57
2018-02-21T21:14:40.739Z,51.56
2018-02-21T21:17:09.147Z,50.42
2018-02-21T21:19:37.646Z,51.23
2018-02-21T21:22:06.049Z,49.61
2018-02-21T21:24:34.454Z,49.51
2018-02-21T21:27:02.908Z,51.34
2018-02-21T21:29:31.332Z,48.55
2018-02-21T21:31:59.989Z,48.95
2018-02-21T21:34:28.440Z,50.60
2018-02-21T21:36:56.871Z,48.76
2018-02-21T21:39:25.316Z,51.35
2018-02-21T21:41:54.721Z,51.11
2018-02-21T21:44:23.373Z,50.06
2018-02-21T21:46:52.503Z,49.27
2018-02-21T21:49:21.035Z,50.46
2018-02-21T21:51:51.865Z,51.78
2018-02-21T21:54:20.326Z,52.06
2018-02-21T21:56:48.863Z,49.52
2018-02-21T21:59:17.266Z,51.68
2018-02-21T22:01:45.651Z,50.04
2018-02-21T22:04:14.075Z,52.52
2018-02-21T22:06:42.484Z,50.83
2018-02-21T22:09:10.968Z,48.40
2018-02-21T22:11:39.353Z,50.32
2018-02-21T22:14:07.831Z,49.31
2018-02-21T22:16:36.257Z,47.87
2018-02-21T22:19:04.662Z,50.44
2018-02-21T22:21:33.137Z,50.76
2018-02-21T22:24:01.542Z,50.00
2018-02-21T22:26:29.947Z,49.81
2018-02-21T22:28:58.360Z,49.44
2018-02-21T22:31:26.756Z,50.16
2018-02-21T22:33:55.225Z,49.80
2018-02-21T22:36:23.665Z,50.47
2018-02-21T22:38:52.049Z,49.24
2018-02-21T22:41:20.458Z,49.34
2018-02-21T22:43:48.858Z,50.07
2018-02-21T22:46:18.509Z,50.50
2018-02-21T22:48:46.914Z,50.14
2018-02-21T22:51:15.335Z,49.54
2018-02-21T22:53:43.752Z,49.48
2018-02-21T22:56:12.162Z,48.22
2018-02-21T22:58:40.655Z,48.00
2018-02-21T23:01:09.125Z,48.33
2018-02-21T23:03:37.643Z,48.43
2018-02-21T23:06:06.082Z,51.11
2018-02-21T23:08:34.493Z,49.66
2018-02-21T23:11:02.970Z,48.17
2018-02-21T23:13:31.373Z,49.66
2018-02-21T23:15:59.781Z,50.54
2018-02-21T23:18:28.178Z,51.55
2018-02-21T23:20:56.574Z,51.23
2018-02-21T23:23:25.200Z,52.25
2018-02-21T23:25:53.611Z,51.79
2018-02-21T23:28:21.995Z,51.08
2018-02-21T23:30:50.416Z,50.91
2018-02-21T23:33:18.908Z,50.89
2018-02-21T23:35:47.395Z,52.90
2018-02-21T23:38:15.797Z,54.23
2018-02-21T23:40:44.199Z,51.26
2018-02-21T23:43:12.700Z,54.16
2018-02-21T23:45:41.172Z,52.83
2018-02-21T23:48:09.650Z,51.08
2018-02-21T23:50:38.056Z,49.36
2018-02-21T23:53:06.481Z,50.21
2018-02-21T23:55:34.876Z,50.06
2018-02-21T23:58:03.268Z,50.34
